createdAt,value
2022-12-08T00:01:10.315Z,0.85
2022-12-08T00:03:38.106Z,0.52
2022-12-08T00:06:24.873Z,0.82
2022-12-08T00:09:10.880Z,0.60
2022-12-08T00:11:39.051Z,0.73
2022-12-08T00:14:06.429Z,0.98
2022-12-08T00:16:33.597Z,1.30
2022-12-08T00:19:00.734Z,1.17
2022-12-08T00:21:29.075Z,1.23
2022-12-08T00:23:56.637Z,1.10
2022-12-08T00:26:23.903Z,2.50
2022-12-08T00:28:50.971Z,1.70
2022-12-08T00:31:18.230Z,1.88
2022-12-08T00:33:45.428Z,2.13
2022-12-08T00:36:13.652Z,2.10
2022-12-08T00:38:41.861Z,2.60
2022-12-08T00:41:16.706Z,2.47
2022-12-08T00:43:43.946Z,2.42
2022-12-08T00:46:11.958Z,2.67
2022-12-08T00:48:39.212Z,2.90
2022-12-08T00:51:06.410Z,2.80
2022-12-08T00:53:33.506Z,2.97
2022-12-08T00:56:00.637Z,2.58
2022-12-08T00:58:27.740Z,2.78
2022-12-08T01:00:54.920Z,2.75
2022-12-08T01:03:22.100Z,2.80
2022-12-08T01:05:49.274Z,2.83
2022-12-08T01:08:16.471Z,2.70
2022-12-08T01:10:43.665Z,2.80
2022-12-08T01:13:11.393Z,2.90
2022-12-08T01:15:38.474Z,2.88
2022-12-08T01:18:05.643Z,3.10
2022-12-08T01:20:32.740Z,2.70
2022-12-08T01:22:59.797Z,2.95
2022-12-08T01:25:26.961Z,3.40
2022-12-08T01:27:54.260Z,2.60
2022-12-08T01:30:21.831Z,3.05
2022-12-08T01:32:48.976Z,3.50
2022-12-08T01:35:16.134Z,3.38
2022-12-08T01:37:43.253Z,2.90
2022-12-08T01:40:10.524Z,2.55
2022-12-08T01:42:38.398Z,2.63
2022-12-08T01:45:07.148Z,2.95
2022-12-08T01:47:36.497Z,2.97
2022-12-08T01:50:04.937Z,2.33
2022-12-08T01:52:37.078Z,2.83
2022-12-08T01:55:09.766Z,2.83
2022-12-08T01:57:48.270Z,2.47
2022-12-08T02:00:16.957Z,2.42
2022-12-08T02:02:47.352Z,2.53
2022-12-08T02:05:14.816Z,2.10
2022-12-08T02:07:41.987Z,1.65
2022-12-08T02:10:09.365Z,2.20
2022-12-08T02:12:36.474Z,1.90
2022-12-08T02:15:05.520Z,2.13
2022-12-08T02:17:39.539Z,2.00
2022-12-08T02:20:09.674Z,2.35
2022-12-08T02:22:55.354Z,2.55
2022-12-08T02:25:29.852Z,2.20
2022-12-08T02:28:20.116Z,2.33
2022-12-08T02:31:12.447Z,3.42
2022-12-08T02:36:25.493Z,2.30
2022-12-08T02:38:52.601Z,2.38
2022-12-08T02:41:24.800Z,2.17
2022-12-08T02:43:56.006Z,2.60
2022-12-08T02:46:25.983Z,2.07
2022-12-08T02:48:53.321Z,2.20
2022-12-08T02:51:20.460Z,3.05
2022-12-08T02:53:47.883Z,2.92
2022-12-08T02:56:38.609Z,2.47
2022-12-08T02:59:25.749Z,2.25
2022-12-08T03:01:58.674Z,2.55
2022-12-08T03:04:34.867Z,2.45
2022-12-08T03:07:07.013Z,2.60
2022-12-08T03:09:57.019Z,2.45
2022-12-08T03:12:31.418Z,2.25
2022-12-08T03:15:00.737Z,2.40
2022-12-08T03:17:29.399Z,2.05
2022-12-08T03:19:57.989Z,2.38
2022-12-08T03:22:26.019Z,2.50
2022-12-08T03:24:53.526Z,1.98
2022-12-08T03:27:28.384Z,2.78
2022-12-08T03:29:56.453Z,2.60
2022-12-08T03:32:47.687Z,2.20
2022-12-08T03:35:16.658Z,2.90
2022-12-08T03:37:44.132Z,2.70
2022-12-08T03:40:13.689Z,3.20
2022-12-08T03:42:41.056Z,2.90
2022-12-08T03:45:08.262Z,3.65
2022-12-08T03:47:35.297Z,3.78
2022-12-08T03:50:02.716Z,3.00
2022-12-08T03:52:30.064Z,3.30
2022-12-08T03:54:57.168Z,2.67
2022-12-08T03:57:24.223Z,2.63
2022-12-08T03:59:51.307Z,2.88
2022-12-08T04:02:18.425Z,2.75
2022-12-08T04:04:45.604Z,2.72
2022-12-08T04:07:12.651Z,2.88
2022-12-08T04:09:41.541Z,2.60
2022-12-08T04:12:09.513Z,2.40
2022-12-08T04:14:36.555Z,2.33
2022-12-08T04:17:03.646Z,2.17
2022-12-08T04:19:30.771Z,1.83
2022-12-08T04:21:57.847Z,2.13
2022-12-08T04:24:24.922Z,1.95
2022-12-08T04:26:52.062Z,1.60
2022-12-08T04:29:19.282Z,1.67
2022-12-08T04:31:46.489Z,2.20
2022-12-08T04:34:13.595Z,2.03
2022-12-08T04:36:40.658Z,1.88
2022-12-08T04:39:07.808Z,2.28
2022-12-08T04:41:34.882Z,2.03
2022-12-08T04:44:01.921Z,1.65
2022-12-08T04:46:29.013Z,2.25
2022-12-08T04:48:56.081Z,1.98
2022-12-08T04:51:23.209Z,2.53
2022-12-08T04:53:50.260Z,2.13
2022-12-08T04:56:18.173Z,2.10
2022-12-08T04:58:45.678Z,2.28
2022-12-08T05:01:12.984Z,2.55
2022-12-08T05:03:40.217Z,2.00
2022-12-08T05:06:07.720Z,2.72
2022-12-08T05:08:34.907Z,2.40
2022-12-08T05:11:02.683Z,2.50
2022-12-08T05:13:29.758Z,2.20
2022-12-08T05:16:02.816Z,2.40
2022-12-08T05:18:29.936Z,1.95
2022-12-08T05:20:57.041Z,2.13
2022-12-08T05:23:24.092Z,1.95
2022-12-08T05:25:51.517Z,2.00
2022-12-08T05:28:40.771Z,2.42
2022-12-08T05:31:05.939Z,2.70
2022-12-08T05:33:33.109Z,1.52
2022-12-08T05:36:00.187Z,1.30
2022-12-08T05:38:27.254Z,1.80
2022-12-08T05:40:54.349Z,1.63
2022-12-08T05:43:21.649Z,1.27
2022-12-08T05:45:48.787Z,1.33
2022-12-08T05:48:16.024Z,1.10
2022-12-08T05:50:47.930Z,0.90
2022-12-08T05:53:15.510Z,1.15
2022-12-08T05:55:42.671Z,0.85
2022-12-08T05:58:12.695Z,0.80
2022-12-08T06:00:39.847Z,1.00
2022-12-08T06:03:07.028Z,1.05
2022-12-08T06:05:34.885Z,1.00
2022-12-08T06:08:02.111Z,1.20
2022-12-08T06:10:29.464Z,0.70
2022-12-08T06:12:56.521Z,1.10
2022-12-08T06:15:23.577Z,0.93
2022-12-08T06:17:50.645Z,0.65
2022-12-08T06:20:17.815Z,0.80
2022-12-08T06:22:44.898Z,1.20
2022-12-08T06:25:11.981Z,0.63
2022-12-08T06:27:39.327Z,0.68
2022-12-08T06:30:07.070Z,0.85
2022-12-08T06:32:34.370Z,0.80
2022-12-08T06:35:01.456Z,0.60
2022-12-08T06:37:29.522Z,0.65
2022-12-08T06:39:56.921Z,0.40
2022-12-08T06:42:42.607Z,0.70
2022-12-08T06:45:10.016Z,0.40
2022-12-08T06:47:37.096Z,0.52
2022-12-08T06:50:04.898Z,0.57
2022-12-08T06:52:32.259Z,0.40
2022-12-08T06:54:59.308Z,0.70
2022-12-08T06:57:26.505Z,0.52
2022-12-08T06:59:53.560Z,0.68
2022-12-08T07:02:20.738Z,0.47
2022-12-08T07:04:47.880Z,0.30
2022-12-08T07:07:15.000Z,0.80
2022-12-08T07:09:42.108Z,0.50
2022-12-08T07:12:09.199Z,0.60
2022-12-08T07:14:36.262Z,0.40
2022-12-08T07:17:03.476Z,0.40
2022-12-08T07:19:30.567Z,0.60
2022-12-08T07:21:57.620Z,0.32
2022-12-08T07:24:25.015Z,0.55
2022-12-08T07:26:52.077Z,0.40
2022-12-08T07:29:24.608Z,0.38
2022-12-08T07:31:53.195Z,0.50
2022-12-08T07:34:20.357Z,0.30
2022-12-08T07:36:47.561Z,0.63
2022-12-08T07:39:14.649Z,0.45
2022-12-08T07:41:41.751Z,0.70
2022-12-08T07:44:09.508Z,0.38
2022-12-08T07:46:36.838Z,0.50
2022-12-08T07:49:04.031Z,0.40
2022-12-08T07:51:31.182Z,0.47
2022-12-08T07:53:58.230Z,0.70
2022-12-08T07:56:25.375Z,0.90
2022-12-08T07:58:52.428Z,1.33
2022-12-08T08:01:21.186Z,1.13
2022-12-08T08:03:48.372Z,0.80
2022-12-08T08:06:15.485Z,0.98
2022-12-08T08:08:42.595Z,0.80
2022-12-08T08:11:18.956Z,0.80
2022-12-08T08:13:48.407Z,0.57
2022-12-08T08:16:15.632Z,0.68
2022-12-08T08:18:43.506Z,0.50
2022-12-08T08:23:57.895Z,0.90
2022-12-08T08:26:24.990Z,0.98
2022-12-08T08:28:52.093Z,0.60
2022-12-08T08:31:19.169Z,0.30
2022-12-08T08:33:48.658Z,0.47
2022-12-08T08:36:15.751Z,0.63
2022-12-08T08:38:44.165Z,0.77
2022-12-08T08:41:11.765Z,0.90
2022-12-08T08:43:39.380Z,0.73
2022-12-08T08:46:08.908Z,0.50
2022-12-08T08:48:36.385Z,0.40
2022-12-08T08:51:10.633Z,0.85
2022-12-08T08:53:38.057Z,0.80
2022-12-08T08:56:09.214Z,0.68
2022-12-08T08:58:36.285Z,1.00
2022-12-08T09:01:03.469Z,1.13
2022-12-08T09:03:30.598Z,1.25
2022-12-08T09:05:58.031Z,1.08
2022-12-08T09:08:25.273Z,1.10
2022-12-08T09:10:52.599Z,1.00
2022-12-08T09:13:19.687Z,1.10
2022-12-08T09:15:46.857Z,1.25
2022-12-08T09:18:13.935Z,1.10
2022-12-08T09:20:41.184Z,1.40
2022-12-08T09:23:08.285Z,1.30
2022-12-08T09:25:35.378Z,1.58
2022-12-08T09:28:02.500Z,1.23
2022-12-08T09:30:29.622Z,1.60
2022-12-08T09:32:56.731Z,1.88
2022-12-08T09:35:23.826Z,1.73
2022-12-08T09:37:50.888Z,2.20
2022-12-08T09:40:19.551Z,1.73
2022-12-08T09:43:05.321Z,2.00
2022-12-08T09:45:35.455Z,1.88
2022-12-08T09:48:19.833Z,2.08
2022-12-08T09:50:55.320Z,2.20
2022-12-08T09:53:27.408Z,1.90
2022-12-08T09:56:06.336Z,1.75
2022-12-08T09:58:42.436Z,1.60
2022-12-08T10:01:10.895Z,1.77
2022-12-08T10:03:37.971Z,2.05
2022-12-08T10:06:10.057Z,1.70
2022-12-08T10:11:11.601Z,1.60
2022-12-08T10:13:41.409Z,2.08
2022-12-08T10:16:21.155Z,2.22
2022-12-08T10:18:56.174Z,2.40
2022-12-08T10:21:25.913Z,1.52
2022-12-08T10:23:55.403Z,1.40
2022-12-08T10:26:22.988Z,1.92
2022-12-08T10:28:50.231Z,1.75
2022-12-08T10:31:19.008Z,1.58
2022-12-08T10:33:47.754Z,1.55
2022-12-08T10:36:14.877Z,1.52
2022-12-08T10:38:41.993Z,1.65
2022-12-08T10:41:11.959Z,1.65
2022-12-08T10:43:42.805Z,2.22
2022-12-08T10:46:16.144Z,1.40
2022-12-08T10:48:54.074Z,2.35
2022-12-08T10:51:41.527Z,2.40
2022-12-08T10:54:28.584Z,1.63
2022-12-08T10:56:56.744Z,2.42
2022-12-08T10:59:27.337Z,1.58
2022-12-08T11:01:55.621Z,1.73
2022-12-08T11:04:24.597Z,1.98
2022-12-08T11:06:52.346Z,1.70
2022-12-08T11:09:19.573Z,1.42
2022-12-08T11:11:49.451Z,2.22
2022-12-08T11:14:26.835Z,2.13
2022-12-08T11:17:03.219Z,1.95
2022-12-08T11:19:30.350Z,2.00
2022-12-08T11:21:57.536Z,1.95
2022-12-08T11:24:26.235Z,2.30
2022-12-08T11:27:03.436Z,1.80
2022-12-08T11:29:32.242Z,2.33
2022-12-08T11:32:08.956Z,1.92
2022-12-08T11:34:39.646Z,2.55
2022-12-08T11:37:08.002Z,2.53
2022-12-08T11:39:36.529Z,2.45
2022-12-08T11:42:04.336Z,2.50
2022-12-08T11:44:34.591Z,2.63
2022-12-08T11:47:05.501Z,2.38
2022-12-08T11:49:40.782Z,3.00
2022-12-08T11:52:13.291Z,2.38
2022-12-08T11:54:45.892Z,2.03
2022-12-08T11:57:16.510Z,2.17
2022-12-08T11:59:46.287Z,1.98
2022-12-08T12:02:29.926Z,1.80
2022-12-08T12:05:01.645Z,2.30
2022-12-08T12:07:31.488Z,2.55
2022-12-08T12:10:09.048Z,1.95
2022-12-08T12:12:39.740Z,1.98
2022-12-08T12:15:36.417Z,1.85
2022-12-08T12:18:07.469Z,2.05
2022-12-08T12:20:41.062Z,1.80
2022-12-08T12:23:25.295Z,1.77
2022-12-08T12:25:56.787Z,1.80
2022-12-08T12:28:25.418Z,1.63
2022-12-08T12:30:57.074Z,1.85
2022-12-08T12:33:24.509Z,1.88
2022-12-08T12:35:51.832Z,1.45
2022-12-08T12:38:38.030Z,1.58
2022-12-08T12:41:06.166Z,2.03
2022-12-08T12:43:35.326Z,1.38
2022-12-08T12:46:20.976Z,1.30
2022-12-08T12:48:48.140Z,1.25
2022-12-08T12:51:33.943Z,1.80
2022-12-08T12:54:20.812Z,1.45
2022-12-08T12:57:06.345Z,1.15
2022-12-08T12:59:36.838Z,1.10
2022-12-08T13:02:04.017Z,1.27
2022-12-08T13:04:37.420Z,1.08
2022-12-08T13:07:05.707Z,1.20
2022-12-08T13:09:38.106Z,1.15
2022-12-08T13:12:10.417Z,1.20
2022-12-08T13:14:47.611Z,1.45
2022-12-08T13:17:17.240Z,1.27
2022-12-08T13:19:51.702Z,1.15
2022-12-08T13:22:38.059Z,1.40
2022-12-08T13:25:23.961Z,1.33
2022-12-08T13:27:54.989Z,1.58
2022-12-08T13:30:41.233Z,1.33
2022-12-08T13:33:19.414Z,1.40
2022-12-08T13:35:48.620Z,1.50
2022-12-08T13:38:17.964Z,1.92
2022-12-08T13:40:45.379Z,1.67
2022-12-08T13:43:41.313Z,1.65
2022-12-08T13:50:47.864Z,1.38
2022-12-08T13:53:49.183Z,1.50
2022-12-08T13:56:05.370Z,1.05
2022-12-08T13:57:33.305Z,1.25
2022-12-08T14:02:30.541Z,1.52
2022-12-08T14:07:45.348Z,1.58
2022-12-08T14:10:18.814Z,1.60
2022-12-08T14:12:47.478Z,1.42
2022-12-08T14:15:16.499Z,1.58
2022-12-08T14:17:51.744Z,1.30
2022-12-08T14:20:27.129Z,1.40
2022-12-08T14:22:55.347Z,1.33
2022-12-08T14:25:23.030Z,1.02
2022-12-08T14:27:50.638Z,1.13
2022-12-08T14:30:20.806Z,1.00
2022-12-08T14:32:49.538Z,1.27
2022-12-08T14:35:27.902Z,0.90
2022-12-08T14:38:05.497Z,1.20
2022-12-08T14:40:34.730Z,1.30
2022-12-08T14:43:08.678Z,1.20
2022-12-08T14:45:35.762Z,1.00
2022-12-08T14:48:21.328Z,1.45
2022-12-08T14:51:01.836Z,1.00
2022-12-08T14:53:39.969Z,1.17
2022-12-08T14:56:10.141Z,1.10
2022-12-08T14:58:37.302Z,1.20
2022-12-08T15:01:07.063Z,1.85
2022-12-08T15:03:34.524Z,1.42
2022-12-08T15:06:04.783Z,1.60
2022-12-08T15:08:32.276Z,1.42
2022-12-08T15:11:25.284Z,1.42
2022-12-08T15:13:54.385Z,1.38
2022-12-08T15:16:24.893Z,1.50
2022-12-08T15:19:02.340Z,1.70
2022-12-08T15:21:31.018Z,1.58
2022-12-08T15:23:58.210Z,1.70
2022-12-08T15:26:26.382Z,1.40
2022-12-08T15:28:53.952Z,1.30
2022-12-08T15:31:21.658Z,2.13
2022-12-08T15:33:48.985Z,1.63
2022-12-08T15:36:16.060Z,1.70
2022-12-08T15:38:43.678Z,1.80
2022-12-08T15:41:14.827Z,1.67
2022-12-08T15:43:42.616Z,1.70
2022-12-08T15:46:09.803Z,2.05
2022-12-08T15:48:37.945Z,2.35
2022-12-08T15:51:05.055Z,2.15
2022-12-08T15:53:32.163Z,2.15
2022-12-08T15:58:56.001Z,1.60
2022-12-08T16:01:24.628Z,1.65
2022-12-08T16:09:32.197Z,1.60
2022-12-08T16:12:18.343Z,2.42
2022-12-08T16:17:32.993Z,2.17
2022-12-08T16:20:00.309Z,1.80
2022-12-08T16:25:20.273Z,1.67
2022-12-08T16:28:01.480Z,1.45
2022-12-08T16:30:33.277Z,1.98
2022-12-08T16:33:00.914Z,1.80
2022-12-08T16:35:28.527Z,1.92
2022-12-08T16:37:55.873Z,1.73
2022-12-08T16:40:23.249Z,1.80
2022-12-08T16:42:50.574Z,1.60
2022-12-08T16:45:19.170Z,2.10
2022-12-08T16:47:50.680Z,2.13
2022-12-08T16:50:24.737Z,2.28
2022-12-08T16:52:57.077Z,2.17
2022-12-08T16:55:24.269Z,2.20
2022-12-08T16:57:51.330Z,2.28
2022-12-08T17:00:19.989Z,2.45
2022-12-08T17:02:47.095Z,2.67
2022-12-08T17:05:15.207Z,2.75
2022-12-08T17:07:46.278Z,3.08
2022-12-08T17:10:15.011Z,2.97
2022-12-08T17:12:42.563Z,3.70
2022-12-08T17:15:11.862Z,3.75
2022-12-08T17:17:39.524Z,4.00
2022-12-08T17:20:08.248Z,3.80
2022-12-08T17:22:36.022Z,4.45
2022-12-08T17:25:03.292Z,3.35
2022-12-08T17:27:30.841Z,3.83
2022-12-08T17:29:58.063Z,3.95
2022-12-08T17:32:25.250Z,3.08
2022-12-08T17:34:52.401Z,3.25
2022-12-08T17:37:19.913Z,3.50
2022-12-08T17:39:47.138Z,3.25
2022-12-08T17:42:14.229Z,3.08
2022-12-08T17:44:41.416Z,3.40
2022-12-08T17:47:08.596Z,3.67
2022-12-08T17:49:35.727Z,3.67
2022-12-08T17:52:04.348Z,3.42
2022-12-08T17:54:31.809Z,2.85
2022-12-08T17:56:59.009Z,3.80
2022-12-08T17:59:26.915Z,3.47
2022-12-08T18:01:54.678Z,3.88
2022-12-08T18:04:22.231Z,3.55
2022-12-08T18:06:49.373Z,4.30
2022-12-08T18:09:16.518Z,4.80
2022-12-08T18:11:44.418Z,4.57
2022-12-08T18:14:11.672Z,4.63
2022-12-08T18:16:40.182Z,5.22
2022-12-08T18:19:08.603Z,4.60
2022-12-08T18:21:35.844Z,4.78
2022-12-08T18:24:03.068Z,4.30
2022-12-08T18:26:30.715Z,4.13
2022-12-08T18:28:58.064Z,3.95
2022-12-08T18:31:25.615Z,4.22
2022-12-08T18:33:53.249Z,4.43
2022-12-08T18:36:22.024Z,5.22
2022-12-08T18:38:49.094Z,4.97
2022-12-08T18:41:18.297Z,4.80
2022-12-08T18:43:45.895Z,5.22
2022-12-08T18:46:14.196Z,5.00
2022-12-08T18:48:42.831Z,5.60
2022-12-08T18:51:11.612Z,5.18
2022-12-08T18:53:39.752Z,5.07
2022-12-08T18:56:07.199Z,6.03
2022-12-08T18:58:34.535Z,6.18
2022-12-08T19:01:01.667Z,5.75
2022-12-08T19:03:29.373Z,4.85
2022-12-08T19:06:05.757Z,5.43
2022-12-08T19:08:33.201Z,4.45
2022-12-08T19:11:00.704Z,4.30
2022-12-08T19:13:27.774Z,4.47
2022-12-08T19:15:55.298Z,4.68
2022-12-08T19:18:22.453Z,5.38
2022-12-08T19:20:49.610Z,4.95
2022-12-08T19:23:16.802Z,4.88
2022-12-08T19:25:43.902Z,5.20
2022-12-08T19:28:11.002Z,4.28
2022-12-08T19:30:38.188Z,5.07
2022-12-08T19:33:05.330Z,4.32
2022-12-08T19:35:32.431Z,4.35
2022-12-08T19:37:59.524Z,4.60
2022-12-08T19:40:45.461Z,4.70
2022-12-08T19:43:52.297Z,4.40
2022-12-08T19:46:19.770Z,4.22
2022-12-08T19:48:47.009Z,4.72
2022-12-08T19:51:14.165Z,4.85
2022-12-08T19:53:47.383Z,4.85
2022-12-08T19:56:14.993Z,4.28
2022-12-08T19:58:42.137Z,4.65
2022-12-08T20:01:09.334Z,5.38
2022-12-08T20:03:37.194Z,5.03
2022-12-08T20:06:04.407Z,5.70
2022-12-08T20:08:31.680Z,6.55
2022-12-08T20:10:59.367Z,6.30
2022-12-08T20:13:41.627Z,5.78
2022-12-08T20:18:36.557Z,5.75
2022-12-08T20:21:03.968Z,6.07
2022-12-08T20:23:31.113Z,6.68
2022-12-08T20:25:58.374Z,6.00
2022-12-08T20:28:25.558Z,6.78
2022-12-08T20:30:52.803Z,6.32
2022-12-08T20:33:20.183Z,6.47
2022-12-08T20:35:47.559Z,6.00
2022-12-08T20:38:14.644Z,6.35
2022-12-08T20:40:43.086Z,8.18
2022-12-08T20:43:10.265Z,7.30
2022-12-08T20:45:37.341Z,6.53
2022-12-08T20:48:04.666Z,7.18
2022-12-08T20:50:31.739Z,6.75
2022-12-08T20:52:59.047Z,6.18
2022-12-08T20:55:26.142Z,6.15
2022-12-08T20:57:53.472Z,7.18
2022-12-08T21:00:23.067Z,6.32
2022-12-08T21:02:56.271Z,6.82
2022-12-08T21:05:24.058Z,7.18
2022-12-08T21:07:51.401Z,6.72
2022-12-08T21:10:18.592Z,5.63
2022-12-08T21:12:45.763Z,6.75
2022-12-08T21:15:13.193Z,6.72
2022-12-08T21:17:40.554Z,6.70
2022-12-08T21:20:08.325Z,6.03
2022-12-08T21:22:35.802Z,6.47
2022-12-08T21:25:02.983Z,6.72
2022-12-08T21:27:30.275Z,5.88
2022-12-08T21:29:57.438Z,5.80
2022-12-08T21:32:28.761Z,5.47
2022-12-08T21:34:57.680Z,6.05
2022-12-08T21:37:24.957Z,5.68
2022-12-08T21:39:52.239Z,5.28
2022-12-08T21:42:38.054Z,5.53
2022-12-08T21:45:05.563Z,6.20
2022-12-08T21:47:33.082Z,5.85
2022-12-08T21:50:00.484Z,6.72
2022-12-08T21:52:27.860Z,6.50
2022-12-08T21:54:55.164Z,6.47
2022-12-08T21:57:22.487Z,6.00
2022-12-08T21:59:49.732Z,6.47
2022-12-08T22:02:20.950Z,5.97
2022-12-08T22:04:49.883Z,6.45
2022-12-08T22:07:17.417Z,5.80
2022-12-08T22:09:44.754Z,7.68
2022-12-08T22:12:12.257Z,6.53
2022-12-08T22:14:40.420Z,7.03
2022-12-08T22:17:08.313Z,6.15
2022-12-08T22:19:35.857Z,6.63
2022-12-08T22:22:03.065Z,5.85
2022-12-08T22:24:31.359Z,5.72
2022-12-08T22:26:58.728Z,6.15
2022-12-08T22:29:25.873Z,5.70
2022-12-08T22:31:53.467Z,6.07
2022-12-08T22:34:20.622Z,6.30
2022-12-08T22:36:49.054Z,5.72
2022-12-08T22:39:16.260Z,6.47
2022-12-08T22:41:43.481Z,6.55
2022-12-08T22:44:10.716Z,6.05
2022-12-08T22:46:37.972Z,6.18
2022-12-08T22:49:05.225Z,6.57
2022-12-08T22:51:32.383Z,5.45
2022-12-08T22:53:59.700Z,6.47
2022-12-08T22:56:26.791Z,6.78
2022-12-08T22:58:53.830Z,5.88
2022-12-08T23:01:29.283Z,7.10
2022-12-08T23:03:56.649Z,6.00
2022-12-08T23:06:24.121Z,6.43
2022-12-08T23:08:51.616Z,5.63
2022-12-08T23:11:19.629Z,6.65
2022-12-08T23:13:47.206Z,6.78
2022-12-08T23:16:14.502Z,6.18
2022-12-08T23:18:42.709Z,6.60
2022-12-08T23:21:11.589Z,7.03
2022-12-08T23:23:38.837Z,6.50
2022-12-08T23:26:06.230Z,6.85
2022-12-08T23:28:33.347Z,7.53
2022-12-08T23:31:00.568Z,5.80
2022-12-08T23:33:27.645Z,5.55
2022-12-08T23:35:58.268Z,5.82
2022-12-08T23:38:25.999Z,5.88
2022-12-08T23:40:53.663Z,5.65
2022-12-08T23:43:20.791Z,5.18
2022-12-08T23:45:48.592Z,6.40
2022-12-08T23:48:16.020Z,6.80
2022-12-08T23:50:43.153Z,5.95
2022-12-08T23:53:10.221Z,5.88
2022-12-08T23:55:37.615Z,6.70
2022-12-08T23:58:04.655Z,6.10
